Terminal Aerodrome Forecast
Issued by NWS

Home | Current Version | Previous Version | Text Only | Print | Product List | Glossary On
Versions: 1 2 3 4 5 6 7 8 9 10 11 12 13 14
000
FTUS43 KLSX 232200 AAA
TAFCPS
TAF AMD
KCPS 232224Z 2322/2418 VRB04KT P6SM OVC100
     FM240300 VRB04KT P6SM BKN025
     FM240600 33006KT 5SM -RA BKN015
     FM241200 32010KT 4SM -RASN SCT008 OVC015
     FM241500 29010KT 3SM -SN OVC008
      TEMPO 2416/2418 1SM -SN=

USA.gov is the U.S. government's official web portal to all federal, state and local government web resources and services.